CheckWX is a tool to help pilots better visualize weather data.  It is not intended as a substitute for an official pre-flight weather briefing.

23:03:36 UTC

KFTW METAR
Fort Worth Meacham International Airport
Fort Worth, Texas, USA
Current

11 mins ago

KFTW 012253Z 16012G22KT 10SM CLR 19/12 A2987 RMK AO2 SLP111 T01940117
Observed
Apr-1 @ 22:53 UTC
Wind
  • 160° at 12 KTS
  • Gusting to 22 KTS
Visibility
10 SM
Flight Rules
VFR
Cloud Levels
  • Clear skies
Temperature
19°C / 66°F
Dewpoint
12°C / 54°F
Humidity
64%
Altimeter
29.87" Hg
Pressure
1011.52 hPa
Previous

1 hour ago

KFTW 012153Z 15015G23KT 10SM CLR 20/12 A2987 RMK AO2 SLP111 T02000122
Observed
Apr-1 @ 21:53 UTC
Wind
  • 150° at 15 KTS
  • Gusting to 23 KTS
Visibility
10 SM
Flight Rules
VFR
Cloud Levels
  • Clear skies
Temperature
20°C / 68°F
Dewpoint
12°C / 54°F
Humidity
60%
Altimeter
29.87" Hg
Pressure
1011.52 hPa
Previous

2 hours ago

KFTW 012053Z AUTO 16015KT 10SM CLR 19/11 A2989 RMK AO2 SLP119 T01940111 58028
Observed
Apr-1 @ 20:53 UTC
Wind
  • 160° at 15 KTS
Visibility
10 SM
Flight Rules
VFR
Cloud Levels
  • Clear skies
Temperature
19°C / 66°F
Dewpoint
11°C / 52°F
Humidity
60%
Altimeter
29.89" Hg
Pressure
1012.22 hPa